Accueil
METAR-TAF:

METAR-TAF

Aéroports :

Base aérienne de Thulé

Thulé, Groenland

latitude: 76-32N, longitude: 068-42W, altitude: 77 m

Observation

Le bulletin a été fait il y a 20 minutes, à 00:56 UTC
Vent 6 kt de est
Température -15°C
Humidité 92%
Pression 1001 hPa
Visibilité 10 km ou plus
Quelques nuages à une hauteur de 700 ft
Ciel couvert à une hauteur de 1300 ft

METAR: BGTL 120056Z AUTO 10006KT 9999 FEW007 OVC013 M15/M16 A2955 RMK AO2 CIG 005 RWY26 SLP996 T11551157 TSNO $

Heure: 21:16 (01:16 UTC)


TAF: absent

Observations et prévisions météorologiques de plus de 4000 aéroports (messages METAR et TAF).

Les stations disponibles sont représentées par des disques jaunes et rouges sur la carte.

Passer la souris dessus pour voir le nom de la station.

Cliquer dessus pour voir les observations et prévisions météorologiques.

Pour changer de carte: cliquez sur les boutons verts avec une croix noire pour zoomer, sur le bouton vert avec un tiret pour effectuer un zoom arrière, ou sur les flèches vertes pour les cartes adjacentes.


METAR-TAF: